Portada
METAR-TAF:

METAR-TAF

Aeroports :

Iakutsk, Rússia

latitud: 62-01N, longitud: 129-43E, altitud: 103 m

Observació

L'informe es va fer fa 19 minuts, a les 16:00 UTC
Vent 2 kt del Oest
Temperatura -46°C
Humitat 56%
Pressió 1019 hPa
Visibilitat: 0700 m
boira

METAR: UEEE 201600Z 28001MPS 0700 R23L/1600N FG NSC M46/M51 Q1019 R23L/450150 NOSIG RMK QFE755

Hora: 01:19 (16:19 UTC)

Pronòstic

L'informe es va fer fa 2 hores i 19 minuts, a les 14:00 UTC
Pronòstic vàlid del 20 a les 15 UTC al 21 a les 21 UTC
Vent 6 kt del Nord/Nord-Oest
Visibilitat: 0300 m
a una alçada de 300 ft
boira
Temporalment
l' 20 a les 15 UTC al 21 a les 06 UTC
Visibilitat: 0700 m
boira

TAF: UEEE 201400Z 2015/2121 33003MPS 0300 FG VV003 TXM46/2015Z TNM50/2023Z TEMPO 2015/2106 0700 FG NSC

Observacions i pronòstics meteorològics de més de 4000 aeroports (METAR i TAF).

Les estacions disponibles són els punts grocs i vermells al mapa.

Posi el ratolí al punt desitjat per veure el nom de l'estació.

Feu clic per veure les observacions i els pronòstics meteorològics.

Per canviar el mapa: feu clic els botons verds amb una creu de color negre per apropar; al botó verd amb un guió per allunyar la imatge; o en les fletxes verdes per a mapes adjacents.


METAR-TAF: